Time;durP1;ratioP1;P1;durP2;ratioP2;P2;SDS_P1;SDS_P2;PMS_P1;PMS_P2;Temp;Humidity;BMP_temperature;BMP_pressure;BME280_temperature;BME280_humidity;BME280_pressure;Samples;Min_cycle;Max_cycle;Signal;HPM_P1;HPM_P2
2022/07/01 00:01:23;;;;;;;30.50;18.60;;;;;;;14.68;100.00;101406.81;5028641;28;20069;-72
2022/07/01 00:03:49;;;;;;;31.65;18.92;;;;;;;14.65;100.00;101405.19;5032177;28;20032;-72
2022/07/01 00:06:16;;;;;;;33.65;20.40;;;;;;;14.64;100.00;101394.56;5048005;28;20044;-72
2022/07/01 00:08:42;;;;;;;32.42;19.15;;;;;;;14.60;100.00;101391.25;5062744;28;20048;-72
2022/07/01 00:11:07;;;;;;;34.63;20.45;;;;;;;14.63;100.00;101392.88;5029743;28;20219;-73
2022/07/01 00:13:33;;;;;;;32.47;19.85;;;;;;;14.58;100.00;101400.38;5029135;28;20033;-72
2022/07/01 00:15:59;;;;;;;31.83;18.65;;;;;;;14.61;100.00;101401.03;5048149;28;20037;-72
2022/07/01 00:18:25;;;;;;;32.95;19.50;;;;;;;14.67;100.00;101389.00;5033000;28;20050;-72
2022/07/01 00:20:54;;;;;;;32.95;19.75;;;;;;;14.63;100.00;101388.34;5013157;28;20037;-72
2022/07/01 00:23:19;;;;;;;30.02;19.20;;;;;;;14.67;100.00;101383.63;5012867;28;20049;-72
2022/07/01 00:25:45;;;;;;;33.97;20.40;;;;;;;14.66;100.00;101387.25;5013540;28;20041;-72
2022/07/01 00:28:11;;;;;;;34.55;19.83;;;;;;;14.58;100.00;101389.66;5011110;28;20822;-72
2022/07/01 00:30:37;;;;;;;31.42;18.73;;;;;;;14.53;100.00;101405.22;5026739;28;20525;-72
2022/07/01 00:33:03;;;;;;;31.13;19.00;;;;;;;14.53;100.00;101398.03;5026542;28;20041;-72
2022/07/01 00:35:28;;;;;;;32.70;18.40;;;;;;;14.49;100.00;101397.38;4991996;28;20041;-72
2022/07/01 00:37:54;;;;;;;30.67;19.15;;;;;;;14.48;100.00;101392.13;5007570;28;20144;-72
2022/07/01 00:40:19;;;;;;;33.05;19.13;;;;;;;14.43;100.00;101402.31;5025822;28;20477;-71
2022/07/01 00:42:45;;;;;;;32.53;19.92;;;;;;;14.30;100.00;101404.97;5025237;28;20064;-72
2022/07/01 00:45:11;;;;;;;32.30;19.10;;;;;;;14.44;100.00;101404.88;5025497;28;20060;-72
2022/07/01 00:47:37;;;;;;;31.63;18.92;;;;;;;14.35;100.00;101410.00;5024832;28;20088;-71
2022/07/01 00:50:07;;;;;;;31.85;19.95;;;;;;;14.28;100.00;101411.44;5024808;28;20033;-72
2022/07/01 00:52:34;;;;;;;33.00;18.65;;;;;;;14.31;100.00;101403.13;5025139;28;20049;-71
2022/07/01 00:55:03;;;;;;;31.63;19.13;;;;;;;14.36;100.00;101395.66;5006564;28;20719;-72
2022/07/01 00:57:33;;;;;;;31.73;18.85;;;;;;;14.40;100.00;101399.81;5039709;28;20076;-72
2022/07/01 01:00:00;;;;;;;28.58;18.55;;;;;;;14.42;100.00;101389.84;5024539;28;20502;-72
2022/07/01 01:02:26;;;;;;;34.10;20.98;;;;;;;14.43;100.00;101399.63;5024412;28;20041;-72
2022/07/01 01:04:51;;;;;;;35.13;19.42;;;;;;;14.52;100.00;101399.00;5024180;28;20049;-73
2022/07/01 01:07:17;;;;;;;31.60;18.85;;;;;;;14.66;100.00;101401.56;5024348;28;20761;-71
2022/07/01 01:09:42;;;;;;;29.02;18.55;;;;;;;14.64;100.00;101413.38;5006421;28;20480;-72
2022/07/01 01:12:11;;;;;;;31.77;19.33;;;;;;;14.64;100.00;101410.69;5023662;28;20408;-72
2022/07/01 01:14:48;;;;;;;37.42;20.35;;;;;;;14.61;100.00;101416.25;5038689;28;20038;-72
2022/07/01 01:17:15;;;;;;;32.25;19.45;;;;;;;14.56;100.00;101416.59;5015576;28;20548;-72
2022/07/01 01:19:42;;;;;;;39.05;21.77;;;;;;;14.50;100.00;101427.75;5002691;28;20061;-71
2022/07/01 01:22:08;;;;;;;35.25;20.75;;;;;;;14.54;100.00;101436.47;5004158;28;20061;-71
2022/07/01 01:24:35;;;;;;;34.10;20.88;;;;;;;14.54;100.00;101442.69;5004296;28;20041;-72
2022/07/01 01:27:00;;;;;;;41.22;23.15;;;;;;;14.50;100.00;101443.84;4986217;28;20832;-72
2022/07/01 01:29:26;;;;;;;38.28;23.27;;;;;;;14.57;100.00;101445.16;4986520;28;20034;-72
2022/07/01 01:31:51;;;;;;;45.00;23.73;;;;;;;14.63;100.00;101462.66;5004309;28;20033;-72
2022/07/01 01:34:17;;;;;;;43.58;24.38;;;;;;;14.58;100.00;101472.84;5002380;28;20042;-72
2022/07/01 01:36:43;;;;;;;45.97;27.33;;;;;;;14.49;100.00;101479.72;5003033;28;20042;-72
2022/07/01 01:41:34;;;;;;;49.85;27.20;;;;;;;14.55;100.00;101475.75;5004050;28;20080;-72
2022/07/01 01:43:59;;;;;;;52.38;27.02;;;;;;;14.62;100.00;101464.47;5004109;28;20042;-72
2022/07/01 01:46:25;;;;;;;66.57;31.92;;;;;;;14.45;100.00;101460.25;5002356;28;20110;-72
2022/07/01 01:48:50;;;;;;;60.22;29.40;;;;;;;14.53;100.00;101458.91;5021604;28;20329;-72
2022/07/01 01:51:18;;;;;;;60.05;28.73;;;;;;;14.53;100.00;101449.03;5005105;28;20049;-72
2022/07/01 01:53:45;;;;;;;65.00;32.08;;;;;;;14.35;100.00;101451.13;5004877;28;20136;-71
2022/07/01 01:56:10;;;;;;;63.20;31.20;;;;;;;14.48;100.00;101452.03;5004864;28;20041;-72
2022/07/01 01:58:36;;;;;;;62.83;30.90;;;;;;;14.42;100.00;101448.88;5023557;28;20048;-72
2022/07/01 02:01:01;;;;;;;63.38;32.08;;;;;;;14.40;100.00;101465.06;5023379;28;20142;-72
2022/07/01 02:03:28;;;;;;;64.53;32.03;;;;;;;14.38;100.00;101469.69;5023740;28;20063;-72
2022/07/01 02:05:54;;;;;;;69.95;33.10;;;;;;;14.46;100.00;101463.81;5005594;28;20103;-72
2022/07/01 02:08:19;;;;;;;64.53;31.45;;;;;;;14.48;100.00;101473.50;5023169;28;20065;-72
2022/07/01 02:10:45;;;;;;;65.22;32.38;;;;;;;14.30;100.00;101480.09;5023269;28;20065;-72
2022/07/01 02:13:10;;;;;;;67.38;33.95;;;;;;;14.17;100.00;101471.19;5024184;28;20128;-71
2022/07/01 02:15:36;;;;;;;62.88;30.67;;;;;;;14.23;100.00;101460.88;5006719;28;20041;-72
2022/07/01 02:18:01;;;;;;;65.95;33.53;;;;;;;14.22;100.00;101448.44;5006991;28;20041;-72
2022/07/01 02:20:27;;;;;;;64.57;33.15;;;;;;;14.34;100.00;101459.28;5025193;28;20041;-74
2022/07/01 02:22:52;;;;;;;66.75;34.17;;;;;;;14.26;100.00;101457.16;5025469;28;20048;-72
2022/07/01 02:25:19;;;;;;;67.45;33.42;;;;;;;14.22;100.00;101461.84;5025233;28;20049;-72
2022/07/01 02:27:45;;;;;;;68.35;33.10;;;;;;;14.22;100.00;101461.84;5025311;28;20049;-72
2022/07/01 02:30:11;;;;;;;68.80;32.97;;;;;;;14.10;100.00;101459.13;5025087;28;20091;-72
2022/07/01 02:32:36;;;;;;;67.22;31.95;;;;;;;14.26;100.00;101462.50;5007473;28;20422;-72
2022/07/01 02:35:02;;;;;;;67.85;33.30;;;;;;;14.30;100.00;101473.88;5025099;28;20749;-72
2022/07/01 02:37:28;;;;;;;68.82;34.67;;;;;;;14.29;100.00;101477.53;5007404;28;20489;-72
2022/07/01 02:39:53;;;;;;;60.42;31.77;;;;;;;14.21;100.00;101483.44;5024886;28;20041;-72
2022/07/01 02:42:28;;;;;;;61.28;32.53;;;;;;;14.27;100.00;101474.94;5007050;28;20049;-72
2022/07/01 02:44:54;;;;;;;60.90;30.85;;;;;;;14.25;100.00;101480.41;5025834;28;20037;-72
2022/07/01 02:47:21;;;;;;;62.75;32.10;;;;;;;14.12;100.00;101476.00;5025240;28;20041;-72
2022/07/01 02:49:47;;;;;;;57.05;29.95;;;;;;;14.05;100.00;101477.38;5024764;28;20037;-73
2022/07/01 02:52:12;;;;;;;57.40;29.40;;;;;;;13.98;100.00;101476.94;5006464;28;20121;-72
2022/07/01 02:54:38;;;;;;;59.30;31.48;;;;;;;13.92;100.00;101474.66;4990261;28;20041;-72
2022/07/01 02:57:04;;;;;;;52.45;30.05;;;;;;;13.95;100.00;101475.31;5024960;28;20565;-72
2022/07/01 02:59:29;;;;;;;57.45;31.00;;;;;;;13.93;100.00;101484.44;5006145;28;20093;-72
2022/07/01 03:01:55;;;;;;;57.95;31.45;;;;;;;14.00;100.00;101493.75;5024008;28;20044;-72
2022/07/01 03:04:20;;;;;;;53.20;28.52;;;;;;;13.98;100.00;101480.47;5005153;28;20072;-71
2022/07/01 03:06:46;;;;;;;63.10;30.38;;;;;;;14.04;100.00;101481.88;5023443;28;20044;-72
2022/07/01 03:09:11;;;;;;;57.50;29.08;;;;;;;14.01;100.00;101492.81;5023519;28;20041;-72
2022/07/01 03:11:37;;;;;;;57.85;30.52;;;;;;;14.05;100.00;101504.19;5023482;28;20042;-72
2022/07/01 03:14:03;;;;;;;59.08;30.20;;;;;;;14.04;100.00;101513.19;5021412;28;20080;-72
2022/07/01 03:16:28;;;;;;;56.08;28.88;;;;;;;13.96;100.00;101511.03;5038391;28;20037;-72
2022/07/01 03:18:54;;;;;;;57.05;29.42;;;;;;;14.11;100.00;101504.66;5023330;28;20045;-72
2022/07/01 03:21:19;;;;;;;57.17;30.10;;;;;;;13.94;100.00;101504.91;5023460;28;20041;-72
2022/07/01 03:23:45;;;;;;;63.15;30.05;;;;;;;13.98;100.00;101509.09;5023101;28;20126;-72
2022/07/01 03:26:10;;;;;;;59.72;30.10;;;;;;;14.06;100.00;101514.84;5005479;28;20041;-72
2022/07/01 03:28:36;;;;;;;53.08;26.95;;;;;;;14.00;100.00;101518.75;5023094;28;20083;-72
2022/07/01 03:31:01;;;;;;;55.38;28.35;;;;;;;13.90;100.00;101514.13;5022777;28;20079;-72
2022/07/01 03:33:27;;;;;;;56.70;27.92;;;;;;;13.80;100.00;101521.03;5022639;28;20045;-72
2022/07/01 03:35:53;;;;;;;53.13;26.98;;;;;;;13.82;100.00;101521.81;5022339;28;20038;-73
2022/07/01 03:38:18;;;;;;;52.70;27.02;;;;;;;13.78;100.00;101514.94;5022924;28;20044;-72
2022/07/01 03:40:44;;;;;;;61.67;29.40;;;;;;;13.89;100.00;101510.56;5022847;28;20048;-73
2022/07/01 03:43:10;;;;;;;54.92;27.33;;;;;;;13.86;100.00;101524.19;5022466;28;20172;-73
2022/07/01 03:45:35;;;;;;;59.38;28.90;;;;;;;13.98;100.00;101523.38;5022243;28;20056;-72
2022/07/01 03:48:02;;;;;;;59.55;29.52;;;;;;;13.86;100.00;101534.06;5022245;28;20025;-72
2022/07/01 03:50:28;;;;;;;54.50;27.75;;;;;;;13.93;100.00;101536.22;5021943;28;20508;-72
2022/07/01 03:54:29;;;;;;;51.30;26.48;;;;;;;14.02;100.00;101537.44;5021956;28;20041;-72
2022/07/01 03:55:39;;;;;;;49.25;25.52;;;;;;;14.02;100.00;101547.31;5021578;28;20044;-72
2022/07/01 03:58:05;;;;;;;51.58;26.13;;;;;;;13.98;100.00;101547.50;5004884;28;20046;-72
2022/07/01 04:00:36;;;;;;;53.92;27.17;;;;;;;13.96;100.00;101552.13;5002322;28;20123;-72
2022/07/01 04:03:03;;;;;;;55.88;26.77;;;;;;;14.08;100.00;101561.16;5002685;28;20041;-72
2022/07/01 04:05:28;;;;;;;55.70;27.15;;;;;;;14.00;100.00;101550.06;5000902;28;20049;-72
2022/07/01 04:07:54;;;;;;;54.53;26.90;;;;;;;13.97;100.00;101561.88;4985103;28;20046;-72
2022/07/01 04:10:20;;;;;;;50.67;26.33;;;;;;;14.03;100.00;101559.75;4984675;28;20053;-72
2022/07/01 04:12:45;;;;;;;52.78;25.70;;;;;;;14.03;100.00;101554.41;5002196;28;20033;-72
2022/07/01 04:15:11;;;;;;;57.10;26.45;;;;;;;13.97;100.00;101558.34;5002734;28;20041;-72
2022/07/01 04:17:36;;;;;;;52.33;25.70;;;;;;;14.02;100.00;101558.03;5013652;28;20029;-72
2022/07/01 04:20:02;;;;;;;55.47;26.38;;;;;;;14.09;100.00;101544.09;5004225;28;20053;-72
2022/07/01 04:22:35;;;;;;;58.55;27.33;;;;;;;13.98;100.00;101552.88;5021890;28;20033;-73
2022/07/01 04:25:03;;;;;;;57.90;26.88;;;;;;;13.88;100.00;101561.63;5003779;28;20055;-73
2022/07/01 04:27:29;;;;;;;51.75;26.13;;;;;;;13.95;100.00;101561.09;5003816;28;20482;-73
2022/07/01 04:29:54;;;;;;;58.67;26.27;;;;;;;13.94;100.00;101567.44;5003803;28;20045;-73
2022/07/01 04:32:20;;;;;;;52.08;24.30;;;;;;;14.04;100.00;101565.00;5021587;28;20045;-73
2022/07/01 04:34:46;;;;;;;51.45;25.00;;;;;;;14.17;100.00;101576.66;5021687;28;20037;-73
2022/07/01 04:37:12;;;;;;;47.83;24.75;;;;;;;14.26;100.00;101567.13;5021860;28;20049;-73
2022/07/01 04:39:37;;;;;;;51.30;25.55;;;;;;;14.21;100.00;101563.91;5021796;28;20045;-73
2022/07/01 04:42:03;;;;;;;54.30;26.08;;;;;;;14.36;100.00;101572.75;5020923;28;20049;-73
2022/07/01 04:44:31;;;;;;;52.67;24.30;;;;;;;14.34;100.00;101580.03;5021023;28;20111;-73
2022/07/01 04:46:58;;;;;;;48.22;23.88;;;;;;;14.28;100.00;101583.13;5003722;28;20119;-73
2022/07/01 04:49:23;;;;;;;44.63;23.13;;;;;;;14.31;100.00;101589.16;5021618;28;20053;-73
2022/07/01 04:51:49;;;;;;;44.95;23.60;;;;;;;14.32;100.00;101580.13;5021304;28;20047;-73
2022/07/01 04:54:15;;;;;;;46.67;23.30;;;;;;;14.34;100.00;101574.66;5021510;28;20045;-73
2022/07/01 04:56:41;;;;;;;43.97;22.23;;;;;;;14.26;100.00;101575.19;5020366;28;20045;-73
2022/07/01 04:59:07;;;;;;;40.83;22.13;;;;;;;14.34;100.00;101571.97;5021473;28;20053;-73
2022/07/01 05:01:32;;;;;;;41.22;22.40;;;;;;;14.30;100.00;101586.56;5021267;28;20053;-73
2022/07/01 05:03:59;;;;;;;39.15;19.85;;;;;;;14.20;100.00;101584.47;5024516;28;20041;-73
2022/07/01 05:06:25;;;;;;;38.97;19.85;;;;;;;14.32;100.00;101579.28;5006328;28;20073;-73
2022/07/01 05:08:54;;;;;;;37.45;20.20;;;;;;;14.33;100.00;101581.84;5039416;28;20492;-74
2022/07/01 05:11:19;;;;;;;39.80;20.15;;;;;;;14.35;100.00;101579.06;5023807;28;20120;-73
2022/07/01 05:13:45;;;;;;;38.33;20.27;;;;;;;14.52;100.00;101573.44;5024185;28;20100;-72
2022/07/01 05:16:10;;;;;;;37.33;20.25;;;;;;;14.54;100.00;101570.66;5005572;28;20505;-73
2022/07/01 05:24:06;;;;;;;34.63;18.60;;;;;;;14.51;100.00;101563.69;5023827;28;20055;-73
2022/07/01 05:26:31;;;;;;;34.35;18.85;;;;;;;14.61;100.00;101571.94;5023382;28;20049;-73
2022/07/01 05:28:57;;;;;;;38.45;20.08;;;;;;;14.64;100.00;101567.22;5023495;28;20103;-72
2022/07/01 05:31:23;;;;;;;33.92;19.10;;;;;;;14.67;100.00;101568.84;5023684;28;20087;-73
2022/07/01 05:33:48;;;;;;;33.35;17.88;;;;;;;14.76;100.00;101573.59;5006236;28;20093;-72
2022/07/01 05:36:17;;;;;;;37.42;18.70;;;;;;;14.99;100.00;101574.66;5023646;28;20045;-71
2022/07/01 05:38:43;;;;;;;32.58;16.75;;;;;;;14.81;100.00;101590.25;5024780;28;20123;-73
2022/07/01 05:41:09;;;;;;;31.00;17.58;;;;;;;14.85;100.00;101593.56;5006890;28;20045;-73
2022/07/01 05:43:35;;;;;;;35.45;19.05;;;;;;;14.88;100.00;101587.97;5023895;28;20510;-73
2022/07/01 05:46:01;;;;;;;31.42;17.40;;;;;;;15.01;100.00;101589.72;4989605;28;20037;-75
2022/07/01 05:48:27;;;;;;;35.67;18.75;;;;;;;15.12;100.00;101582.72;5005193;28;20473;-73
2022/07/01 05:50:52;;;;;;;34.90;18.38;;;;;;;14.99;100.00;101583.56;5022617;28;20037;-73
2022/07/01 05:53:18;;;;;;;32.00;18.65;;;;;;;15.16;100.00;101585.09;5023729;28;20052;-73
2022/07/01 05:55:44;;;;;;;33.92;18.48;;;;;;;15.13;100.00;101581.75;5023176;28;20099;-74
2022/07/01 05:58:11;;;;;;;33.45;18.42;;;;;;;15.13;100.00;101571.88;5004776;28;20079;-73
2022/07/01 06:00:37;;;;;;;33.58;18.80;;;;;;;14.95;100.00;101565.94;5004654;28;20061;-73
2022/07/01 06:03:03;;;;;;;36.92;20.23;;;;;;;14.95;100.00;101573.16;5022861;28;20037;-73
2022/07/01 06:05:30;;;;;;;37.67;17.95;;;;;;;15.14;100.00;101578.09;5005356;28;20612;-73
2022/07/01 06:07:55;;;;;;;31.38;18.73;;;;;;;15.26;100.00;101569.16;5004676;28;20076;-73
2022/07/01 06:10:20;;;;;;;32.10;17.92;;;;;;;15.61;100.00;101571.97;5004933;28;20094;-73
2022/07/01 06:12:46;;;;;;;32.83;17.33;;;;;;;15.62;100.00;101579.09;5004778;28;20037;-73
2022/07/01 06:15:12;;;;;;;34.25;18.27;;;;;;;15.92;100.00;101578.72;5022932;28;20033;-73
2022/07/01 06:17:39;;;;;;;34.67;17.17;;;;;;;15.59;100.00;101576.63;5004530;28;20033;-73
2022/07/01 06:20:08;;;;;;;36.55;18.30;;;;;;;15.97;98.89;101570.31;5023040;28;20057;-73
2022/07/01 06:22:34;;;;;;;29.23;16.38;;;;;;;16.04;98.29;101568.84;5004644;28;20052;-73
2022/07/01 06:25:01;;;;;;;32.08;16.92;;;;;;;15.94;97.15;101571.38;5022454;28;20045;-73
2022/07/01 06:27:27;;;;;;;31.88;17.73;;;;;;;15.92;97.70;101567.09;5022131;28;20056;-73
2022/07/01 06:29:52;;;;;;;29.67;17.27;;;;;;;15.95;98.34;101569.53;5021822;28;20045;-73
2022/07/01 06:32:19;;;;;;;31.85;16.55;;;;;;;15.89;98.02;101578.94;5021965;28;20049;-72
2022/07/01 06:34:45;;;;;;;27.75;16.23;;;;;;;16.20;95.48;101585.56;5036792;28;20042;-72
2022/07/01 06:37:10;;;;;;;31.73;17.33;;;;;;;16.24;94.06;101584.38;5021661;28;20552;-72
2022/07/01 06:39:36;;;;;;;27.30;15.07;;;;;;;16.23;93.61;101581.81;5021871;28;20086;-72
2022/07/01 06:42:01;;;;;;;29.30;15.88;;;;;;;16.22;93.20;101580.09;5021409;28;20125;-72
2022/07/01 06:44:27;;;;;;;25.00;14.98;;;;;;;16.33;94.16;101581.97;5021903;28;20037;-72
2022/07/01 06:46:52;;;;;;;29.60;16.42;;;;;;;15.91;93.41;101576.13;5021885;28;20519;-72
2022/07/01 06:49:18;;;;;;;26.25;16.00;;;;;;;16.12;92.30;101581.75;5036765;28;20044;-72
2022/07/01 06:51:49;;;;;;;25.40;15.23;;;;;;;16.73;92.19;101596.81;5022328;28;20430;-72
2022/07/01 06:54:17;;;;;;;25.92;15.35;;;;;;;16.90;89.98;101590.09;5022075;28;20068;-72
2022/07/01 06:56:46;;;;;;;31.88;16.40;;;;;;;17.07;87.16;101589.66;5033855;28;20044;-72
2022/07/01 06:59:12;;;;;;;29.35;16.20;;;;;;;17.18;88.24;101586.13;5022186;28;20083;-72
2022/07/01 07:01:37;;;;;;;26.17;15.73;;;;;;;16.83;88.25;101600.50;5023065;28;20143;-72
2022/07/01 07:04:03;;;;;;;28.88;15.77;;;;;;;17.27;88.75;101606.06;5023785;28;20112;-72
2022/07/01 07:06:29;;;;;;;25.67;14.90;;;;;;;17.26;88.63;101604.34;5024468;28;20099;-73
2022/07/01 07:08:54;;;;;;;27.00;16.15;;;;;;;17.30;88.42;101606.69;5023184;28;20112;-73
2022/07/01 07:11:20;;;;;;;30.98;16.30;;;;;;;17.13;88.29;101609.03;5023643;28;20588;-73
2022/07/01 07:13:46;;;;;;;25.02;15.02;;;;;;;17.47;86.79;101612.56;5006129;28;20033;-73
2022/07/01 07:16:11;;;;;;;29.55;14.57;;;;;;;17.63;86.38;101607.69;5024396;28;20048;-73
2022/07/01 07:18:37;;;;;;;26.80;14.93;;;;;;;17.66;85.45;101609.25;5024187;28;20039;-72
2022/07/01 07:21:03;;;;;;;27.85;14.65;;;;;;;18.00;84.20;101612.78;5023850;28;20520;-73
2022/07/01 07:23:29;;;;;;;25.63;15.40;;;;;;;18.59;81.54;101615.03;5005957;28;20126;-73
2022/07/01 07:25:55;;;;;;;31.02;14.95;;;;;;;18.98;81.13;101609.94;5038946;28;20097;-73
2022/07/01 07:28:21;;;;;;;23.23;14.20;;;;;;;18.88;77.88;101612.59;5024714;28;20041;-73
2022/07/01 07:30:46;;;;;;;25.08;15.05;;;;;;;19.06;79.51;101612.81;5024694;28;20033;-73
2022/07/01 07:33:12;;;;;;;23.35;14.60;;;;;;;19.28;77.20;101619.94;5024262;28;20045;-73
2022/07/01 07:35:37;;;;;;;23.30;14.85;;;;;;;19.01;75.59;101615.91;5023927;28;20041;-72
2022/07/01 07:38:03;;;;;;;25.13;14.75;;;;;;;19.41;74.11;101613.28;5006077;28;20041;-72
2022/07/01 07:40:28;;;;;;;28.73;13.15;;;;;;;19.83;74.01;101612.31;5004942;28;20056;-73
2022/07/01 07:42:57;;;;;;;23.40;14.10;;;;;;;19.77;74.33;101616.44;5022985;28;20045;-71
2022/07/01 07:45:22;;;;;;;22.83;14.50;;;;;;;19.53;73.22;101627.59;5022996;28;20045;-71
2022/07/01 07:47:49;;;;;;;25.58;14.30;;;;;;;20.02;72.47;101625.03;5022589;28;20095;-71
2022/07/01 07:50:15;;;;;;;23.23;13.55;;;;;;;20.39;71.58;101620.69;5022003;28;20052;-72
2022/07/01 07:52:42;;;;;;;21.15;11.63;;;;;;;20.84;73.74;101627.41;5021534;28;20079;-72
2022/07/01 07:55:09;;;;;;;18.75;12.00;;;;;;;19.77;69.84;101619.13;5022246;28;20049;-73
2022/07/01 07:57:36;;;;;;;20.80;12.73;;;;;;;20.13;71.23;101620.38;5021138;28;20061;-73
2022/07/01 08:00:04;;;;;;;15.98;12.27;;;;;;;20.78;70.63;101627.97;5011133;28;20085;-73
2022/07/01 08:02:37;;;;;;;16.67;12.50;;;;;;;20.80;68.38;101624.13;5001407;28;20058;-73
2022/07/01 08:05:03;;;;;;;15.07;11.15;;;;;;;20.63;68.01;101627.53;4982818;28;20046;-73
2022/07/01 08:07:28;;;;;;;18.25;12.02;;;;;;;20.29;69.09;101619.84;5001137;28;20050;-73
2022/07/01 08:09:55;;;;;;;18.70;12.10;;;;;;;19.81;69.43;101626.00;5001667;28;20050;-73
2022/07/01 08:12:21;;;;;;;17.58;11.15;;;;;;;20.28;70.12;101634.38;5001519;28;20099;-73
2022/07/01 08:14:47;;;;;;;22.02;11.55;;;;;;;20.06;69.64;101643.59;5001435;28;20926;-73
2022/07/01 08:17:12;;;;;;;18.85;11.65;;;;;;;20.63;69.31;101636.56;5009347;28;20037;-73
2022/07/01 08:19:38;;;;;;;17.02;10.95;;;;;;;21.45;66.89;101643.28;5021178;28;20103;-73
2022/07/01 08:22:03;;;;;;;16.88;11.18;;;;;;;20.72;65.05;101647.53;5021148;28;20087;-73
2022/07/01 08:24:29;;;;;;;14.32;10.32;;;;;;;20.48;65.73;101643.38;5035263;28;20099;-72
2022/07/01 08:26:55;;;;;;;18.55;10.30;;;;;;;21.48;66.31;101642.09;5035824;28;20041;-73
2022/07/01 08:29:20;;;;;;;17.45;10.23;;;;;;;20.89;65.47;101655.81;5020897;28;20049;-72
2022/07/01 08:31:45;;;;;;;15.38;10.40;;;;;;;20.73;64.32;101650.09;5020638;28;20033;-73
2022/07/01 08:34:11;;;;;;;13.63;9.70;;;;;;;21.38;66.22;101659.28;5020561;28;20037;-73
2022/07/01 08:36:37;;;;;;;15.88;9.20;;;;;;;21.69;64.30;101659.91;5035289;28;20091;-73
2022/07/01 08:39:03;;;;;;;19.27;10.70;;;;;;;21.43;63.12;101656.13;5024793;28;20523;-73
2022/07/01 08:41:32;;;;;;;13.90;8.43;;;;;;;22.58;63.07;101655.63;5024270;28;20037;-76
2022/07/01 08:43:57;;;;;;;15.43;7.47;;;;;;;22.11;63.79;101661.28;5040128;28;20159;-73
2022/07/01 08:46:25;;;;;;;11.88;8.05;;;;;;;22.16;63.96;101669.81;5039293;28;20045;-77
2022/07/01 08:48:50;;;;;;;10.80;7.75;;;;;;;21.92;61.92;101682.06;5024825;28;20244;-76
2022/07/01 08:51:16;;;;;;;10.77;7.35;;;;;;;22.26;61.57;101684.22;5025099;28;20563;-73
2022/07/01 08:53:41;;;;;;;12.75;8.13;;;;;;;21.13;62.78;101685.16;5024885;28;20064;-73
2022/07/01 08:58:51;;;;;;;12.02;7.40;;;;;;;21.15;62.98;101679.59;5024619;28;20049;-73
2022/07/01 09:01:23;;;;;;;10.77;6.47;;;;;;;20.33;62.00;101683.56;5005590;28;20489;-73
2022/07/01 09:03:53;;;;;;;9.93;5.97;;;;;;;21.43;66.83;101683.25;5004356;28;20119;-73
2022/07/01 09:06:25;;;;;;;13.23;6.97;;;;;;;21.45;60.68;101673.13;5005049;28;20053;-73
2022/07/01 09:08:51;;;;;;;12.95;7.38;;;;;;;22.23;58.90;101677.19;5004611;28;20046;-73
2022/07/01 09:11:21;;;;;;;9.60;5.97;;;;;;;22.22;59.38;101675.50;5004213;28;20121;-73
2022/07/01 09:14:11;;;;;;;11.35;6.00;;;;;;;22.32;59.87;101680.88;4987205;28;20438;-72
2022/07/01 09:16:42;;;;;;;13.38;6.28;;;;;;;21.93;58.67;101674.78;5004189;28;20050;-73
2022/07/01 09:19:08;;;;;;;7.97;4.97;;;;;;;21.78;57.25;101677.13;5004166;28;20046;-72
2022/07/01 09:21:34;;;;;;;11.35;4.80;;;;;;;21.10;57.85;101690.03;5003354;28;20041;-72
2022/07/01 09:24:05;;;;;;;9.73;5.18;;;;;;;20.87;59.09;101684.91;5003228;28;20034;-73
2022/07/01 09:26:31;;;;;;;14.33;5.77;;;;;;;21.01;59.34;101685.47;4985996;28;20045;-73
2022/07/01 09:28:57;;;;;;;12.85;4.72;;;;;;;21.22;59.03;101691.56;4985507;28;20399;-73
2022/07/01 09:31:34;;;;;;;10.23;5.25;;;;;;;21.19;58.82;101690.00;5003463;28;20107;-72
2022/07/01 09:34:06;;;;;;;8.82;5.00;;;;;;;22.05;57.00;101694.47;5003267;28;20041;-73
2022/07/01 09:36:32;;;;;;;7.63;5.03;;;;;;;21.81;60.73;101689.56;5002924;28;20069;-72
2022/07/01 09:39:03;;;;;;;8.23;5.10;;;;;;;21.23;59.60;101695.97;5002807;28;20108;-73
2022/07/01 09:41:37;;;;;;;8.77;4.82;;;;;;;21.35;60.49;101702.16;5002962;28;20042;-71
2022/07/01 09:44:08;;;;;;;8.95;5.05;;;;;;;20.84;62.20;101706.88;5002887;28;20057;-72
2022/07/01 09:46:34;;;;;;;7.18;4.30;;;;;;;20.97;60.72;101703.88;4985918;28;20145;-72
2022/07/01 09:49:00;;;;;;;7.35;4.10;;;;;;;21.12;59.25;101709.72;4985871;28;20042;-74
2022/07/01 09:51:26;;;;;;;5.72;4.05;;;;;;;21.48;55.75;101713.53;5003424;28;20136;-75
2022/07/01 09:53:51;;;;;;;7.40;3.95;;;;;;;22.03;57.40;101710.88;4985977;28;20046;-75
2022/07/01 09:56:19;;;;;;;7.93;3.55;;;;;;;22.47;57.77;101702.94;5005417;28;20045;-74
2022/07/01 09:58:44;;;;;;;7.45;3.70;;;;;;;22.58;54.00;101708.16;5004581;28;20339;-73
2022/07/01 10:01:10;;;;;;;6.70;3.30;;;;;;;22.82;53.96;101706.69;5022312;28;20037;-75
2022/07/01 10:03:38;;;;;;;10.13;3.05;;;;;;;22.63;51.06;101705.81;5022602;28;20045;-74
2022/07/01 10:06:30;;;;;;;4.45;2.85;;;;;;;22.76;54.00;101702.72;5022710;28;20053;-74
2022/07/01 10:09:17;;;;;;;5.43;2.50;;;;;;;22.46;52.09;101698.53;5022564;28;20053;-75
2022/07/01 10:11:42;;;;;;;4.57;2.88;;;;;;;22.40;53.10;101708.16;5037537;28;20046;-74
2022/07/01 10:14:11;;;;;;;6.47;2.60;;;;;;;23.51;52.08;101706.75;5022917;28;20044;-74
2022/07/01 10:16:38;;;;;;;6.38;3.30;;;;;;;24.17;51.69;101707.09;5018988;28;20041;-75
2022/07/01 10:19:25;;;;;;;5.05;2.33;;;;;;;24.04;46.47;101700.22;5002902;28;20054;-75
2022/07/01 10:21:53;;;;;;;5.65;3.17;;;;;;;23.91;50.91;101716.19;5002447;28;20085;-74
2022/07/01 10:24:19;;;;;;;3.92;2.50;;;;;;;22.61;52.41;101709.72;5002313;28;20104;-74
2022/07/01 10:26:46;;;;;;;5.78;2.45;;;;;;;22.17;52.34;101721.28;5002105;28;20076;-74
2022/07/01 10:29:28;;;;;;;3.58;1.92;;;;;;;22.48;53.14;101715.53;5001869;28;20057;-73
2022/07/01 10:31:54;;;;;;;3.40;1.88;;;;;;;22.90;52.99;101707.66;5002052;28;20042;-72
2022/07/01 10:34:23;;;;;;;3.15;1.80;;;;;;;23.17;49.97;101703.09;5001968;28;20076;-74
2022/07/01 10:37:03;;;;;;;4.45;2.25;;;;;;;23.34;49.42;101710.38;5002161;28;20049;-74
2022/07/01 10:39:28;;;;;;;5.93;1.98;;;;;;;24.19;51.01;101705.91;4999770;28;20674;-74
2022/07/01 10:41:54;;;;;;;2.75;1.50;;;;;;;22.62;49.04;101715.00;5012856;28;20064;-75
2022/07/01 10:44:21;;;;;;;2.90;1.90;;;;;;;22.52;51.60;101710.63;5021980;28;20595;-74
2022/07/01 10:46:58;;;;;;;3.25;1.98;;;;;;;22.97;51.89;101700.56;5021844;28;20045;-74
2022/07/01 10:49:35;;;;;;;2.08;1.50;;;;;;;23.51;51.62;101706.75;5022620;28;20147;-74
2022/07/01 10:52:03;;;;;;;7.88;2.40;;;;;;;23.40;51.21;101698.00;5022348;28;20382;-74
2022/07/01 10:54:35;;;;;;;7.03;2.03;;;;;;;23.66;51.13;101708.91;5022287;28;20132;-74
2022/07/01 10:57:16;;;;;;;4.45;1.88;;;;;;;22.59;49.11;101709.88;5021384;28;20117;-74
2022/07/01 11:00:02;;;;;;;4.05;1.65;;;;;;;22.77;51.38;101712.59;5020627;28;20713;-74
2022/07/01 11:02:32;;;;;;;3.10;1.75;;;;;;;23.45;49.87;101701.94;5013396;28;20057;-74
2022/07/01 11:04:59;;;;;;;6.30;1.60;;;;;;;23.22;49.10;101703.47;5020684;28;20050;-74
2022/07/01 11:07:27;;;;;;;2.58;1.50;;;;;;;23.18;47.99;101711.09;5003038;28;20294;-74
2022/07/01 11:09:53;;;;;;;2.83;1.30;;;;;;;23.69;47.53;101705.84;5021710;28;20084;-74
2022/07/01 11:12:24;;;;;;;4.63;1.40;;;;;;;23.88;47.34;101704.75;5022168;28;20041;-74
2022/07/01 11:14:50;;;;;;;3.55;1.30;;;;;;;24.10;49.41;101711.50;5021725;28;20045;-75
2022/07/01 11:17:17;;;;;;;3.58;1.55;;;;;;;22.98;48.16;101713.16;5022161;28;20037;-74